sensor_id;sensor_type;location;lat;lon;timestamp;P1;durP1;ratioP1;P2;durP2;ratioP2
24555;SDS011;12725;49.440;10.954;2023-08-31T00:03:41;1.48;;;1.10;;
24555;SDS011;12725;49.440;10.954;2023-08-31T00:07:41;1.23;;;0.95;;
24555;SDS011;12725;49.440;10.954;2023-08-31T00:11:41;1.77;;;1.43;;
24555;SDS011;12725;49.440;10.954;2023-08-31T00:15:42;1.53;;;1.43;;
24555;SDS011;12725;49.440;10.954;2023-08-31T00:19:42;2.20;;;1.37;;
24555;SDS011;12725;49.440;10.954;2023-08-31T00:23:42;1.00;;;0.80;;
24555;SDS011;12725;49.440;10.954;2023-08-31T00:27:43;1.58;;;1.23;;
24555;SDS011;12725;49.440;10.954;2023-08-31T00:31:43;5.67;;;1.47;;
24555;SDS011;12725;49.440;10.954;2023-08-31T00:35:44;1.60;;;1.00;;
24555;SDS011;12725;49.440;10.954;2023-08-31T00:39:48;3.80;;;1.17;;
24555;SDS011;12725;49.440;10.954;2023-08-31T00:43:51;0.95;;;0.90;;
24555;SDS011;12725;49.440;10.954;2023-08-31T00:47:52;1.08;;;0.98;;
24555;SDS011;12725;49.440;10.954;2023-08-31T00:51:52;1.47;;;1.07;;
24555;SDS011;12725;49.440;10.954;2023-08-31T00:55:53;2.58;;;1.20;;
24555;SDS011;12725;49.440;10.954;2023-08-31T00:59:53;1.00;;;0.90;;
24555;SDS011;12725;49.440;10.954;2023-08-31T01:08:31;1.42;;;1.10;;
24555;SDS011;12725;49.440;10.954;2023-08-31T01:12:58;2.80;;;1.80;;
24555;SDS011;12725;49.440;10.954;2023-08-31T01:17:01;1.67;;;1.00;;
24555;SDS011;12725;49.440;10.954;2023-08-31T01:21:05;8.68;;;1.20;;
24555;SDS011;12725;49.440;10.954;2023-08-31T01:29:12;1.40;;;1.30;;
24555;SDS011;12725;49.440;10.954;2023-08-31T01:33:12;1.33;;;1.10;;
24555;SDS011;12725;49.440;10.954;2023-08-31T01:37:14;3.83;;;0.93;;
24555;SDS011;12725;49.440;10.954;2023-08-31T01:41:17;1.08;;;1.00;;
24555;SDS011;12725;49.440;10.954;2023-08-31T01:45:21;1.42;;;1.17;;
24555;SDS011;12725;49.440;10.954;2023-08-31T01:49:22;2.22;;;1.48;;
24555;SDS011;12725;49.440;10.954;2023-08-31T01:53:22;4.20;;;1.10;;
24555;SDS011;12725;49.440;10.954;2023-08-31T01:57:23;1.20;;;0.95;;
24555;SDS011;12725;49.440;10.954;2023-08-31T02:01:23;1.52;;;1.42;;
24555;SDS011;12725;49.440;10.954;2023-08-31T02:05:24;2.20;;;1.53;;
24555;SDS011;12725;49.440;10.954;2023-08-31T02:09:25;1.48;;;1.20;;
24555;SDS011;12725;49.440;10.954;2023-08-31T02:13:25;1.23;;;0.95;;
24555;SDS011;12725;49.440;10.954;2023-08-31T02:17:26;1.27;;;0.93;;
24555;SDS011;12725;49.440;10.954;2023-08-31T02:21:26;1.52;;;1.42;;
24555;SDS011;12725;49.440;10.954;2023-08-31T02:25:26;1.07;;;1.00;;
24555;SDS011;12725;49.440;10.954;2023-08-31T02:29:28;1.45;;;1.15;;
24555;SDS011;12725;49.440;10.954;2023-08-31T02:33:28;2.40;;;1.30;;
24555;SDS011;12725;49.440;10.954;2023-08-31T02:37:29;1.08;;;0.95;;
24555;SDS011;12725;49.440;10.954;2023-08-31T02:41:29;2.05;;;1.60;;
24555;SDS011;12725;49.440;10.954;2023-08-31T02:45:29;2.22;;;1.08;;
24555;SDS011;12725;49.440;10.954;2023-08-31T02:49:30;2.77;;;1.33;;
24555;SDS011;12725;49.440;10.954;2023-08-31T02:53:30;1.27;;;1.17;;
24555;SDS011;12725;49.440;10.954;2023-08-31T02:57:31;1.40;;;1.05;;
24555;SDS011;12725;49.440;10.954;2023-08-31T03:01:31;1.30;;;1.15;;
24555;SDS011;12725;49.440;10.954;2023-08-31T03:05:31;1.05;;;1.00;;
24555;SDS011;12725;49.440;10.954;2023-08-31T03:09:32;1.63;;;1.33;;
24555;SDS011;12725;49.440;10.954;2023-08-31T03:13:32;1.60;;;1.17;;
24555;SDS011;12725;49.440;10.954;2023-08-31T03:17:33;3.20;;;1.40;;
24555;SDS011;12725;49.440;10.954;2023-08-31T03:21:33;2.20;;;1.33;;
24555;SDS011;12725;49.440;10.954;2023-08-31T03:25:33;0.93;;;0.93;;
24555;SDS011;12725;49.440;10.954;2023-08-31T03:29:34;1.43;;;1.30;;
24555;SDS011;12725;49.440;10.954;2023-08-31T03:33:34;2.05;;;1.33;;
24555;SDS011;12725;49.440;10.954;2023-08-31T03:37:35;2.13;;;1.95;;
24555;SDS011;12725;49.440;10.954;2023-08-31T03:41:35;2.17;;;1.53;;
24555;SDS011;12725;49.440;10.954;2023-08-31T03:45:36;1.75;;;1.38;;
24555;SDS011;12725;49.440;10.954;2023-08-31T03:49:36;2.58;;;1.80;;
24555;SDS011;12725;49.440;10.954;2023-08-31T03:53:37;5.75;;;1.05;;
24555;SDS011;12725;49.440;10.954;2023-08-31T03:57:37;1.88;;;1.30;;
24555;SDS011;12725;49.440;10.954;2023-08-31T04:01:37;2.67;;;1.30;;
24555;SDS011;12725;49.440;10.954;2023-08-31T04:05:38;2.88;;;1.85;;
24555;SDS011;12725;49.440;10.954;2023-08-31T04:09:38;2.20;;;1.42;;
24555;SDS011;12725;49.440;10.954;2023-08-31T04:13:39;1.10;;;1.00;;
24555;SDS011;12725;49.440;10.954;2023-08-31T04:17:39;3.50;;;1.85;;
24555;SDS011;12725;49.440;10.954;2023-08-31T04:21:39;10.55;;;1.90;;
24555;SDS011;12725;49.440;10.954;2023-08-31T04:25:40;1.57;;;1.47;;
24555;SDS011;12725;49.440;10.954;2023-08-31T04:29:42;2.53;;;1.52;;
24555;SDS011;12725;49.440;10.954;2023-08-31T04:33:42;1.25;;;1.10;;
24555;SDS011;12725;49.440;10.954;2023-08-31T04:37:42;2.33;;;1.42;;
24555;SDS011;12725;49.440;10.954;2023-08-31T04:41:45;3.40;;;1.67;;
24555;SDS011;12725;49.440;10.954;2023-08-31T04:45:45;3.80;;;2.45;;
24555;SDS011;12725;49.440;10.954;2023-08-31T04:49:45;1.80;;;1.58;;
24555;SDS011;12725;49.440;10.954;2023-08-31T04:53:46;7.15;;;2.10;;
24555;SDS011;12725;49.440;10.954;2023-08-31T04:57:46;4.55;;;2.10;;
24555;SDS011;12725;49.440;10.954;2023-08-31T05:01:46;6.13;;;2.10;;
24555;SDS011;12725;49.440;10.954;2023-08-31T05:05:47;10.63;;;2.15;;
24555;SDS011;12725;49.440;10.954;2023-08-31T05:09:47;3.47;;;2.47;;
24555;SDS011;12725;49.440;10.954;2023-08-31T05:13:47;4.73;;;2.27;;
24555;SDS011;12725;49.440;10.954;2023-08-31T05:17:48;2.88;;;2.50;;
24555;SDS011;12725;49.440;10.954;2023-08-31T05:21:48;4.38;;;2.28;;
24555;SDS011;12725;49.440;10.954;2023-08-31T05:25:49;3.87;;;2.37;;
24555;SDS011;12725;49.440;10.954;2023-08-31T05:29:49;3.47;;;2.72;;
24555;SDS011;12725;49.440;10.954;2023-08-31T05:33:50;4.03;;;2.17;;
24555;SDS011;12725;49.440;10.954;2023-08-31T05:37:50;3.10;;;2.38;;
24555;SDS011;12725;49.440;10.954;2023-08-31T05:41:50;3.42;;;2.60;;
24555;SDS011;12725;49.440;10.954;2023-08-31T05:45:51;3.85;;;2.33;;
24555;SDS011;12725;49.440;10.954;2023-08-31T05:49:51;3.97;;;2.85;;
24555;SDS011;12725;49.440;10.954;2023-08-31T05:53:52;3.08;;;2.75;;
24555;SDS011;12725;49.440;10.954;2023-08-31T05:57:52;4.20;;;3.00;;
24555;SDS011;12725;49.440;10.954;2023-08-31T06:01:52;5.80;;;3.33;;
24555;SDS011;12725;49.440;10.954;2023-08-31T06:05:53;7.72;;;2.90;;
24555;SDS011;12725;49.440;10.954;2023-08-31T06:09:53;6.32;;;3.03;;
24555;SDS011;12725;49.440;10.954;2023-08-31T06:13:54;3.13;;;2.70;;
24555;SDS011;12725;49.440;10.954;2023-08-31T06:17:54;6.55;;;2.80;;
24555;SDS011;12725;49.440;10.954;2023-08-31T06:21:54;4.15;;;2.53;;
24555;SDS011;12725;49.440;10.954;2023-08-31T06:25:55;3.88;;;2.60;;
24555;SDS011;12725;49.440;10.954;2023-08-31T06:29:55;4.30;;;2.83;;
24555;SDS011;12725;49.440;10.954;2023-08-31T06:33:56;6.55;;;3.50;;
24555;SDS011;12725;49.440;10.954;2023-08-31T06:37:56;4.45;;;2.63;;
24555;SDS011;12725;49.440;10.954;2023-08-31T06:41:57;4.22;;;2.80;;
24555;SDS011;12725;49.440;10.954;2023-08-31T06:45:58;3.25;;;2.47;;
24555;SDS011;12725;49.440;10.954;2023-08-31T06:49:58;4.63;;;2.93;;
24555;SDS011;12725;49.440;10.954;2023-08-31T06:53:59;4.70;;;3.08;;
24555;SDS011;12725;49.440;10.954;2023-08-31T06:58:05;3.28;;;2.33;;
24555;SDS011;12725;49.440;10.954;2023-08-31T07:02:06;4.25;;;2.38;;
24555;SDS011;12725;49.440;10.954;2023-08-31T07:06:06;3.08;;;2.20;;
24555;SDS011;12725;49.440;10.954;2023-08-31T07:10:07;3.35;;;2.00;;
24555;SDS011;12725;49.440;10.954;2023-08-31T07:14:08;2.47;;;1.92;;
24555;SDS011;12725;49.440;10.954;2023-08-31T07:18:09;6.72;;;1.75;;
24555;SDS011;12725;49.440;10.954;2023-08-31T07:22:09;2.38;;;2.03;;
24555;SDS011;12725;49.440;10.954;2023-08-31T07:26:10;2.42;;;2.03;;
24555;SDS011;12725;49.440;10.954;2023-08-31T07:30:10;1.70;;;1.50;;
24555;SDS011;12725;49.440;10.954;2023-08-31T07:34:10;4.20;;;2.13;;
24555;SDS011;12725;49.440;10.954;2023-08-31T07:38:11;2.97;;;1.90;;
24555;SDS011;12725;49.440;10.954;2023-08-31T07:42:11;4.70;;;1.80;;
24555;SDS011;12725;49.440;10.954;2023-08-31T07:46:11;3.43;;;1.53;;
24555;SDS011;12725;49.440;10.954;2023-08-31T07:50:12;2.77;;;1.90;;
24555;SDS011;12725;49.440;10.954;2023-08-31T07:54:23;1.42;;;1.27;;
24555;SDS011;12725;49.440;10.954;2023-08-31T07:58:23;8.07;;;1.52;;
24555;SDS011;12725;49.440;10.954;2023-08-31T08:02:24;2.25;;;1.85;;
24555;SDS011;12725;49.440;10.954;2023-08-31T08:06:24;1.45;;;0.98;;
24555;SDS011;12725;49.440;10.954;2023-08-31T08:10:24;1.98;;;1.13;;
24555;SDS011;12725;49.440;10.954;2023-08-31T08:14:25;1.60;;;1.17;;
24555;SDS011;12725;49.440;10.954;2023-08-31T08:18:25;2.00;;;1.10;;
24555;SDS011;12725;49.440;10.954;2023-08-31T08:22:26;6.53;;;1.73;;
24555;SDS011;12725;49.440;10.954;2023-08-31T08:26:26;2.33;;;1.10;;
24555;SDS011;12725;49.440;10.954;2023-08-31T08:30:26;7.30;;;2.35;;
24555;SDS011;12725;49.440;10.954;2023-08-31T08:34:27;2.42;;;1.25;;
24555;SDS011;12725;49.440;10.954;2023-08-31T08:38:27;2.97;;;1.25;;
24555;SDS011;12725;49.440;10.954;2023-08-31T08:42:29;3.80;;;1.33;;
24555;SDS011;12725;49.440;10.954;2023-08-31T08:46:30;1.50;;;1.05;;
24555;SDS011;12725;49.440;10.954;2023-08-31T08:50:32;1.20;;;0.80;;
24555;SDS011;12725;49.440;10.954;2023-08-31T08:54:34;0.70;;;0.70;;
24555;SDS011;12725;49.440;10.954;2023-08-31T08:58:35;0.80;;;0.80;;
24555;SDS011;12725;49.440;10.954;2023-08-31T09:02:35;1.45;;;0.85;;
24555;SDS011;12725;49.440;10.954;2023-08-31T09:06:36;1.40;;;1.30;;
24555;SDS011;12725;49.440;10.954;2023-08-31T09:10:37;2.40;;;1.13;;
24555;SDS011;12725;49.440;10.954;2023-08-31T09:14:41;1.33;;;0.80;;
24555;SDS011;12725;49.440;10.954;2023-08-31T09:18:41;0.98;;;0.88;;
24555;SDS011;12725;49.440;10.954;2023-08-31T09:22:42;2.78;;;1.25;;
24555;SDS011;12725;49.440;10.954;2023-08-31T09:26:45;1.42;;;0.80;;
24555;SDS011;12725;49.440;10.954;2023-08-31T09:30:48;2.33;;;1.30;;
24555;SDS011;12725;49.440;10.954;2023-08-31T09:34:49;1.23;;;0.85;;
24555;SDS011;12725;49.440;10.954;2023-08-31T09:38:50;1.52;;;0.90;;
24555;SDS011;12725;49.440;10.954;2023-08-31T09:42:50;1.93;;;1.10;;
24555;SDS011;12725;49.440;10.954;2023-08-31T09:46:51;2.25;;;1.45;;
24555;SDS011;12725;49.440;10.954;2023-08-31T09:50:52;2.35;;;0.82;;
24555;SDS011;12725;49.440;10.954;2023-08-31T09:54:55;2.25;;;1.38;;
24555;SDS011;12725;49.440;10.954;2023-08-31T09:58:56;2.10;;;1.27;;
24555;SDS011;12725;49.440;10.954;2023-08-31T10:02:57;1.97;;;1.23;;
24555;SDS011;12725;49.440;10.954;2023-08-31T10:07:00;3.83;;;1.67;;
24555;SDS011;12725;49.440;10.954;2023-08-31T10:11:00;3.22;;;1.05;;
24555;SDS011;12725;49.440;10.954;2023-08-31T10:15:03;3.40;;;0.95;;
24555;SDS011;12725;49.440;10.954;2023-08-31T10:19:05;2.92;;;1.30;;
24555;SDS011;12725;49.440;10.954;2023-08-31T10:23:05;5.70;;;1.87;;
24555;SDS011;12725;49.440;10.954;2023-08-31T10:27:27;1.13;;;1.05;;
24555;SDS011;12725;49.440;10.954;2023-08-31T10:31:31;1.13;;;0.82;;
24555;SDS011;12725;49.440;10.954;2023-08-31T10:40:09;1.98;;;0.90;;
24555;SDS011;12725;49.440;10.954;2023-08-31T10:44:22;4.20;;;1.17;;
24555;SDS011;12725;49.440;10.954;2023-08-31T10:48:26;3.30;;;1.52;;
24555;SDS011;12725;49.440;10.954;2023-08-31T10:52:26;1.42;;;1.20;;
24555;SDS011;12725;49.440;10.954;2023-08-31T10:56:29;2.00;;;0.95;;
24555;SDS011;12725;49.440;10.954;2023-08-31T11:00:45;1.77;;;1.20;;
24555;SDS011;12725;49.440;10.954;2023-08-31T11:04:54;1.75;;;1.27;;
24555;SDS011;12725;49.440;10.954;2023-08-31T11:08:56;0.77;;;0.77;;
24555;SDS011;12725;49.440;10.954;2023-08-31T11:12:56;1.48;;;1.13;;
24555;SDS011;12725;49.440;10.954;2023-08-31T11:16:57;1.13;;;1.02;;
24555;SDS011;12725;49.440;10.954;2023-08-31T11:20:59;2.17;;;1.20;;
24555;SDS011;12725;49.440;10.954;2023-08-31T11:25:00;2.85;;;1.33;;
24555;SDS011;12725;49.440;10.954;2023-08-31T11:29:05;1.58;;;1.20;;
24555;SDS011;12725;49.440;10.954;2023-08-31T11:33:06;4.88;;;0.93;;
24555;SDS011;12725;49.440;10.954;2023-08-31T11:37:07;2.78;;;1.35;;
24555;SDS011;12725;49.440;10.954;2023-08-31T11:41:08;3.80;;;1.10;;
24555;SDS011;12725;49.440;10.954;2023-08-31T11:45:09;2.08;;;0.93;;
24555;SDS011;12725;49.440;10.954;2023-08-31T11:49:11;1.88;;;1.00;;
24555;SDS011;12725;49.440;10.954;2023-08-31T11:53:11;0.85;;;0.80;;
24555;SDS011;12725;49.440;10.954;2023-08-31T11:57:12;0.70;;;0.63;;
24555;SDS011;12725;49.440;10.954;2023-08-31T12:01:17;1.10;;;0.85;;
24555;SDS011;12725;49.440;10.954;2023-08-31T12:05:18;1.88;;;1.02;;
24555;SDS011;12725;49.440;10.954;2023-08-31T12:09:19;1.08;;;0.93;;
24555;SDS011;12725;49.440;10.954;2023-08-31T12:13:20;1.65;;;1.10;;
24555;SDS011;12725;49.440;10.954;2023-08-31T12:17:25;0.85;;;0.75;;
24555;SDS011;12725;49.440;10.954;2023-08-31T12:21:26;1.03;;;0.80;;
24555;SDS011;12725;49.440;10.954;2023-08-31T12:25:26;1.57;;;1.07;;
24555;SDS011;12725;49.440;10.954;2023-08-31T12:29:26;3.50;;;1.02;;
24555;SDS011;12725;49.440;10.954;2023-08-31T12:33:27;1.80;;;1.17;;
24555;SDS011;12725;49.440;10.954;2023-08-31T12:37:27;1.15;;;0.88;;
24555;SDS011;12725;49.440;10.954;2023-08-31T12:41:28;0.80;;;0.80;;
24555;SDS011;12725;49.440;10.954;2023-08-31T12:45:28;2.78;;;1.10;;
24555;SDS011;12725;49.440;10.954;2023-08-31T12:49:29;5.00;;;1.27;;
24555;SDS011;12725;49.440;10.954;2023-08-31T12:53:29;4.70;;;1.20;;
24555;SDS011;12725;49.440;10.954;2023-08-31T12:57:30;9.82;;;1.33;;
24555;SDS011;12725;49.440;10.954;2023-08-31T13:01:30;1.17;;;1.02;;
24555;SDS011;12725;49.440;10.954;2023-08-31T13:05:30;1.23;;;0.80;;
24555;SDS011;12725;49.440;10.954;2023-08-31T13:09:31;4.55;;;1.10;;
24555;SDS011;12725;49.440;10.954;2023-08-31T13:13:31;1.03;;;0.90;;
24555;SDS011;12725;49.440;10.954;2023-08-31T13:17:31;1.65;;;1.00;;
24555;SDS011;12725;49.440;10.954;2023-08-31T13:21:32;1.65;;;1.10;;
24555;SDS011;12725;49.440;10.954;2023-08-31T13:25:32;1.45;;;0.82;;
24555;SDS011;12725;49.440;10.954;2023-08-31T13:29:33;0.85;;;0.65;;
24555;SDS011;12725;49.440;10.954;2023-08-31T13:33:33;1.10;;;0.50;;
24555;SDS011;12725;49.440;10.954;2023-08-31T13:37:34;1.60;;;0.83;;
24555;SDS011;12725;49.440;10.954;2023-08-31T13:41:34;1.08;;;0.95;;
24555;SDS011;12725;49.440;10.954;2023-08-31T13:45:34;1.27;;;0.73;;
24555;SDS011;12725;49.440;10.954;2023-08-31T13:49:35;2.85;;;1.15;;
24555;SDS011;12725;49.440;10.954;2023-08-31T13:53:35;1.10;;;0.77;;
24555;SDS011;12725;49.440;10.954;2023-08-31T13:57:36;1.92;;;1.73;;
24555;SDS011;12725;49.440;10.954;2023-08-31T14:01:36;1.13;;;0.75;;
24555;SDS011;12725;49.440;10.954;2023-08-31T14:05:38;6.55;;;0.60;;
24555;SDS011;12725;49.440;10.954;2023-08-31T14:09:38;0.70;;;0.70;;
24555;SDS011;12725;49.440;10.954;2023-08-31T14:13:38;0.60;;;0.60;;
24555;SDS011;12725;49.440;10.954;2023-08-31T14:17:39;3.15;;;0.98;;
24555;SDS011;12725;49.440;10.954;2023-08-31T14:21:39;0.70;;;0.53;;
24555;SDS011;12725;49.440;10.954;2023-08-31T14:25:39;0.57;;;0.57;;
24555;SDS011;12725;49.440;10.954;2023-08-31T14:29:40;2.43;;;1.00;;
24555;SDS011;12725;49.440;10.954;2023-08-31T14:33:40;6.47;;;0.90;;
24555;SDS011;12725;49.440;10.954;2023-08-31T14:37:40;3.27;;;0.70;;
24555;SDS011;12725;49.440;10.954;2023-08-31T14:41:41;1.00;;;1.00;;
24555;SDS011;12725;49.440;10.954;2023-08-31T14:45:42;1.10;;;0.63;;
24555;SDS011;12725;49.440;10.954;2023-08-31T14:49:43;1.10;;;1.00;;
24555;SDS011;12725;49.440;10.954;2023-08-31T14:53:43;1.58;;;0.85;;
24555;SDS011;12725;49.440;10.954;2023-08-31T14:57:43;2.72;;;0.95;;
24555;SDS011;12725;49.440;10.954;2023-08-31T15:01:44;1.67;;;1.05;;
24555;SDS011;12725;49.440;10.954;2023-08-31T15:05:47;1.92;;;0.90;;
24555;SDS011;12725;49.440;10.954;2023-08-31T15:09:48;2.15;;;1.00;;
24555;SDS011;12725;49.440;10.954;2023-08-31T15:13:50;1.00;;;0.93;;
24555;SDS011;12725;49.440;10.954;2023-08-31T15:17:50;2.80;;;0.83;;
24555;SDS011;12725;49.440;10.954;2023-08-31T15:21:50;3.47;;;1.07;;
24555;SDS011;12725;49.440;10.954;2023-08-31T15:25:51;5.23;;;1.57;;
24555;SDS011;12725;49.440;10.954;2023-08-31T15:29:51;0.90;;;0.80;;
24555;SDS011;12725;49.440;10.954;2023-08-31T15:33:52;2.80;;;1.00;;
24555;SDS011;12725;49.440;10.954;2023-08-31T15:37:52;1.17;;;0.88;;
24555;SDS011;12725;49.440;10.954;2023-08-31T15:41:52;1.50;;;0.75;;
24555;SDS011;12725;49.440;10.954;2023-08-31T15:45:53;5.00;;;0.70;;
24555;SDS011;12725;49.440;10.954;2023-08-31T15:49:53;0.70;;;0.70;;
24555;SDS011;12725;49.440;10.954;2023-08-31T15:53:55;1.45;;;1.05;;
24555;SDS011;12725;49.440;10.954;2023-08-31T15:57:56;1.73;;;0.90;;
24555;SDS011;12725;49.440;10.954;2023-08-31T16:01:56;1.58;;;0.90;;
24555;SDS011;12725;49.440;10.954;2023-08-31T16:05:58;1.35;;;1.10;;
24555;SDS011;12725;49.440;10.954;2023-08-31T16:09:59;2.25;;;0.90;;
24555;SDS011;12725;49.440;10.954;2023-08-31T16:13:59;1.13;;;0.85;;
24555;SDS011;12725;49.440;10.954;2023-08-31T16:18:00;1.50;;;0.80;;
24555;SDS011;12725;49.440;10.954;2023-08-31T16:22:00;2.88;;;0.95;;
24555;SDS011;12725;49.440;10.954;2023-08-31T16:26:01;2.03;;;0.95;;
24555;SDS011;12725;49.440;10.954;2023-08-31T16:30:01;1.87;;;1.10;;
24555;SDS011;12725;49.440;10.954;2023-08-31T16:34:02;1.17;;;0.93;;
24555;SDS011;12725;49.440;10.954;2023-08-31T16:38:03;1.08;;;0.90;;
24555;SDS011;12725;49.440;10.954;2023-08-31T16:42:04;5.78;;;1.67;;
24555;SDS011;12725;49.440;10.954;2023-08-31T16:46:04;1.05;;;0.73;;
24555;SDS011;12725;49.440;10.954;2023-08-31T16:50:05;1.42;;;0.80;;
24555;SDS011;12725;49.440;10.954;2023-08-31T16:54:05;2.58;;;1.23;;
24555;SDS011;12725;49.440;10.954;2023-08-31T16:58:06;4.82;;;1.33;;
24555;SDS011;12725;49.440;10.954;2023-08-31T17:02:06;2.38;;;1.30;;
24555;SDS011;12725;49.440;10.954;2023-08-31T17:06:06;1.37;;;0.87;;
24555;SDS011;12725;49.440;10.954;2023-08-31T17:10:07;2.53;;;1.23;;
24555;SDS011;12725;49.440;10.954;2023-08-31T17:14:08;2.63;;;1.08;;
24555;SDS011;12725;49.440;10.954;2023-08-31T17:18:09;0.80;;;0.80;;
24555;SDS011;12725;49.440;10.954;2023-08-31T17:22:10;2.50;;;1.00;;
24555;SDS011;12725;49.440;10.954;2023-08-31T17:26:23;1.47;;;1.07;;
24555;SDS011;12725;49.440;10.954;2023-08-31T17:30:24;1.23;;;0.93;;
24555;SDS011;12725;49.440;10.954;2023-08-31T17:34:25;2.22;;;0.98;;
24555;SDS011;12725;49.440;10.954;2023-08-31T17:38:26;1.83;;;1.63;;
24555;SDS011;12725;49.440;10.954;2023-08-31T17:42:27;3.33;;;1.00;;
24555;SDS011;12725;49.440;10.954;2023-08-31T17:46:27;7.15;;;1.30;;
24555;SDS011;12725;49.440;10.954;2023-08-31T17:50:30;2.22;;;1.38;;
24555;SDS011;12725;49.440;10.954;2023-08-31T17:54:33;1.65;;;1.15;;
24555;SDS011;12725;49.440;10.954;2023-08-31T17:58:33;1.67;;;1.17;;
24555;SDS011;12725;49.440;10.954;2023-08-31T18:02:33;5.72;;;0.90;;
24555;SDS011;12725;49.440;10.954;2023-08-31T18:06:35;1.20;;;0.93;;
24555;SDS011;12725;49.440;10.954;2023-08-31T18:10:36;1.75;;;0.88;;
24555;SDS011;12725;49.440;10.954;2023-08-31T18:14:37;4.70;;;0.95;;
24555;SDS011;12725;49.440;10.954;2023-08-31T18:18:38;1.20;;;0.80;;
24555;SDS011;12725;49.440;10.954;2023-08-31T18:22:38;1.63;;;0.85;;
24555;SDS011;12725;49.440;10.954;2023-08-31T18:26:38;3.23;;;1.20;;
24555;SDS011;12725;49.440;10.954;2023-08-31T18:30:39;0.95;;;0.88;;
24555;SDS011;12725;49.440;10.954;2023-08-31T18:34:39;4.07;;;1.10;;
24555;SDS011;12725;49.440;10.954;2023-08-31T18:38:40;2.67;;;1.08;;
24555;SDS011;12725;49.440;10.954;2023-08-31T18:42:40;0.87;;;0.83;;
24555;SDS011;12725;49.440;10.954;2023-08-31T18:46:41;1.58;;;1.15;;
24555;SDS011;12725;49.440;10.954;2023-08-31T18:50:41;1.30;;;1.05;;
24555;SDS011;12725;49.440;10.954;2023-08-31T18:54:43;1.20;;;1.15;;
24555;SDS011;12725;49.440;10.954;2023-08-31T18:58:43;1.25;;;1.00;;
24555;SDS011;12725;49.440;10.954;2023-08-31T19:02:47;2.05;;;1.10;;
24555;SDS011;12725;49.440;10.954;2023-08-31T19:06:48;2.85;;;1.48;;
24555;SDS011;12725;49.440;10.954;2023-08-31T19:10:49;3.10;;;1.52;;
24555;SDS011;12725;49.440;10.954;2023-08-31T19:14:50;3.08;;;1.08;;
24555;SDS011;12725;49.440;10.954;2023-08-31T19:18:50;1.50;;;1.20;;
24555;SDS011;12725;49.440;10.954;2023-08-31T19:22:56;0.70;;;0.70;;
24555;SDS011;12725;49.440;10.954;2023-08-31T19:26:56;3.75;;;1.10;;
24555;SDS011;12725;49.440;10.954;2023-08-31T19:30:57;2.75;;;1.20;;
24555;SDS011;12725;49.440;10.954;2023-08-31T19:34:58;5.82;;;1.50;;
24555;SDS011;12725;49.440;10.954;2023-08-31T19:38:58;1.47;;;1.10;;
24555;SDS011;12725;49.440;10.954;2023-08-31T19:42:58;2.40;;;1.20;;
24555;SDS011;12725;49.440;10.954;2023-08-31T19:47:00;1.20;;;1.00;;
24555;SDS011;12725;49.440;10.954;2023-08-31T19:51:04;1.38;;;1.20;;
24555;SDS011;12725;49.440;10.954;2023-08-31T19:55:10;1.38;;;1.00;;
24555;SDS011;12725;49.440;10.954;2023-08-31T19:59:13;1.25;;;1.02;;
24555;SDS011;12725;49.440;10.954;2023-08-31T20:03:14;6.82;;;1.20;;
24555;SDS011;12725;49.440;10.954;2023-08-31T20:07:15;2.05;;;1.05;;
24555;SDS011;12725;49.440;10.954;2023-08-31T20:11:17;2.05;;;1.13;;
24555;SDS011;12725;49.440;10.954;2023-08-31T20:15:17;1.33;;;0.95;;
24555;SDS011;12725;49.440;10.954;2023-08-31T20:19:18;1.25;;;1.05;;
24555;SDS011;12725;49.440;10.954;2023-08-31T20:23:18;2.43;;;1.00;;
24555;SDS011;12725;49.440;10.954;2023-08-31T20:27:19;7.18;;;1.20;;
24555;SDS011;12725;49.440;10.954;2023-08-31T20:31:20;3.85;;;2.45;;
24555;SDS011;12725;49.440;10.954;2023-08-31T20:35:20;2.83;;;1.13;;
24555;SDS011;12725;49.440;10.954;2023-08-31T20:39:21;9.83;;;1.00;;
24555;SDS011;12725;49.440;10.954;2023-08-31T20:43:21;1.50;;;1.20;;
24555;SDS011;12725;49.440;10.954;2023-08-31T20:47:23;1.15;;;1.02;;
24555;SDS011;12725;49.440;10.954;2023-08-31T20:51:23;1.88;;;0.90;;
24555;SDS011;12725;49.440;10.954;2023-08-31T20:55:24;0.90;;;0.87;;
24555;SDS011;12725;49.440;10.954;2023-08-31T20:59:24;0.95;;;0.85;;
24555;SDS011;12725;49.440;10.954;2023-08-31T21:03:25;6.50;;;1.27;;
24555;SDS011;12725;49.440;10.954;2023-08-31T21:07:26;2.75;;;1.00;;
24555;SDS011;12725;49.440;10.954;2023-08-31T21:11:26;1.25;;;0.90;;
24555;SDS011;12725;49.440;10.954;2023-08-31T21:15:27;2.50;;;1.45;;
24555;SDS011;12725;49.440;10.954;2023-08-31T21:19:27;0.80;;;0.80;;
24555;SDS011;12725;49.440;10.954;2023-08-31T21:23:28;2.75;;;1.52;;
24555;SDS011;12725;49.440;10.954;2023-08-31T21:27:29;6.70;;;1.13;;
24555;SDS011;12725;49.440;10.954;2023-08-31T21:31:30;2.40;;;1.80;;
24555;SDS011;12725;49.440;10.954;2023-08-31T21:35:34;1.33;;;1.13;;
24555;SDS011;12725;49.440;10.954;2023-08-31T21:39:36;1.60;;;1.00;;
24555;SDS011;12725;49.440;10.954;2023-08-31T21:43:36;3.73;;;1.07;;
24555;SDS011;12725;49.440;10.954;2023-08-31T21:47:37;6.80;;;1.42;;
24555;SDS011;12725;49.440;10.954;2023-08-31T21:51:37;2.47;;;1.23;;
24555;SDS011;12725;49.440;10.954;2023-08-31T21:55:37;1.10;;;1.00;;
24555;SDS011;12725;49.440;10.954;2023-08-31T21:59:38;2.03;;;1.60;;
24555;SDS011;12725;49.440;10.954;2023-08-31T22:03:39;1.13;;;1.02;;
24555;SDS011;12725;49.440;10.954;2023-08-31T22:07:39;0.93;;;0.83;;
24555;SDS011;12725;49.440;10.954;2023-08-31T22:11:40;3.05;;;0.80;;
24555;SDS011;12725;49.440;10.954;2023-08-31T22:15:41;1.95;;;1.40;;
24555;SDS011;12725;49.440;10.954;2023-08-31T22:19:42;1.25;;;1.15;;
24555;SDS011;12725;49.440;10.954;2023-08-31T22:23:44;1.17;;;0.82;;
24555;SDS011;12725;49.440;10.954;2023-08-31T22:27:44;1.38;;;1.00;;
24555;SDS011;12725;49.440;10.954;2023-08-31T22:31:45;2.70;;;1.30;;
24555;SDS011;12725;49.440;10.954;2023-08-31T22:35:45;6.03;;;1.00;;
24555;SDS011;12725;49.440;10.954;2023-08-31T22:39:46;1.20;;;0.95;;
24555;SDS011;12725;49.440;10.954;2023-08-31T22:43:46;2.57;;;0.97;;
24555;SDS011;12725;49.440;10.954;2023-08-31T22:47:47;1.83;;;1.10;;
24555;SDS011;12725;49.440;10.954;2023-08-31T22:51:47;3.38;;;1.20;;
24555;SDS011;12725;49.440;10.954;2023-08-31T22:55:48;2.33;;;1.20;;
24555;SDS011;12725;49.440;10.954;2023-08-31T22:59:48;2.63;;;1.33;;
24555;SDS011;12725;49.440;10.954;2023-08-31T23:03:49;3.75;;;1.52;;
24555;SDS011;12725;49.440;10.954;2023-08-31T23:07:49;0.70;;;0.70;;
24555;SDS011;12725;49.440;10.954;2023-08-31T23:11:50;5.70;;;1.10;;
24555;SDS011;12725;49.440;10.954;2023-08-31T23:15:50;1.15;;;0.95;;
24555;SDS011;12725;49.440;10.954;2023-08-31T23:19:51;2.25;;;1.15;;
24555;SDS011;12725;49.440;10.954;2023-08-31T23:23:51;2.03;;;1.40;;
24555;SDS011;12725;49.440;10.954;2023-08-31T23:27:52;5.07;;;1.30;;
24555;SDS011;12725;49.440;10.954;2023-08-31T23:31:52;1.10;;;1.00;;
24555;SDS011;12725;49.440;10.954;2023-08-31T23:35:53;7.03;;;1.37;;
24555;SDS011;12725;49.440;10.954;2023-08-31T23:39:55;1.10;;;1.00;;
24555;SDS011;12725;49.440;10.954;2023-08-31T23:43:55;2.37;;;1.17;;
24555;SDS011;12725;49.440;10.954;2023-08-31T23:47:56;3.08;;;1.23;;
24555;SDS011;12725;49.440;10.954;2023-08-31T23:51:58;2.95;;;1.02;;
24555;SDS011;12725;49.440;10.954;2023-08-31T23:56:02;1.33;;;1.07;;
